DATE METEO

AZI
Time Temp. Dewp. Hum. Bar.
00:02 0.9 -0.6 89 1005.2
00:13 0.9 -0.6 89 1005.2
00:23 0.9 -0.6 89 1005.2
00:32 1 -0.5 89 1005.3
00:43 1.1 -0.4 89 1005.4
00:53 1.1 -0.3 90 1005.4
01:03 1.3 -0.1 90 1005.5
01:13 1.4 0 90 1005.6
01:23 1.5 0 90 1005.6
01:33 1.6 0.1 90 1005.7
01:43 1.7 0.2 90 1005.9
01:53 1.7 0.2 90 1006
02:04 1.7 0.1 89 1006.1
02:13 1.7 0.1 89 1006.2
02:23 1.8 0.2 89 1006.4
02:34 1.9 0.3 89 1006.6
02:44 2 0.4 89 1006.8
02:53 2 0.4 89 1006.9
03:04 2.2 0.6 89 1007
03:14 2.3 0.7 89 1007.1
03:24 2.4 0.8 89 1007.4
03:34 2.6 1.1 90 1007.7
03:44 2.7 1.1 89 1007.7
03:54 2.8 1.2 89 1007.8
04:04 2.9 1.3 89 1008
04:14 2.9 1.3 89 1008.2
04:25 2.9 1.3 89 1008.2
04:34 2.9 1.3 89 1008.4
04:44 2.7 1.1 89 1008.5
04:55 2.5 0.9 89 1008.6
05:05 2.5 0.9 89 1008.7
05:14 2.4 0.8 89 1008.8
05:25 2.5 0.9 89 1009
05:35 2.5 0.9 89 1009.1
05:45 2.6 1 89 1009.1
05:55 2.6 1 89 1009.2
06:05 2.6 1 89 1009.3
06:15 2.7 1.1 89 1009.5
06:25 2.7 1.1 89 1009.6
06:35 2.6 1 89 1009.9
06:46 2.6 1 89 1010.1
06:55 2.6 1 89 1010.3
07:05 2.6 1 89 1010.4
07:16 2.6 1 89 1010.5
07:26 2.6 1 89 1010.5
07:35 2.5 0.9 89 1010.9
07:46 2.4 0.8 89 1010.6
07:54 2.4 0.8 89 1010.7
08:04 2.3 0.7 89 1010.6
08:15 2.2 0.6 89 1010.9
08:18 2.2 0.6 89 1011
08:35 2.2 0.7 90 1011.1
09:33 7.2 5.7 90 1011.2
09:56 10 7.4 84 1011.4
10:07 10.8 7.7 81 1011.4
10:17 12 8.3 78 1011.5
10:27 12.7 8.2 74 1011.6
10:37 11.7 6.6 71 1011.5
10:39 11.5 6.4 71 1011.5
10:53 11.7 6.8 72 1011.5
11:07 13.6 8 69 1011.4
11:17 14.6 8.3 66 1011.3
11:25 15.3 8.3 63 1011.1
11:48 14.3 6.6 60 1011
11:55 12.5 5.7 63 1011
12:04 13.2 7.2 67 1010.9
12:11 13.2 7 66 1010.6
12:25 11.9 5.8 66 1010.2
12:57 9.2 4.8 74 1010.3
13:05 8.9 4.7 75 1010
13:25 8.1 4.1 76 1010
13:38 7.6 4 78 1009.8
13:48 7.4 3.8 78 1009.7
13:57 7.2 3.8 79 1009.6
14:01 7.1 3.7 79 1009.5

STATISTICILE ZILEI

2021-12-07
TEMPERATURA
MEDIA
4.9
MAXIM
15.3
11:25
MINIM
0.9
00:02
PRESIUNEA
MEDIA
1008.9
MAXIM
1011.6
10:27
MINIM
1005.2
00:02
PUNCTUL DE ROUĂ
MEDIA
2.3
MAXIM
8.3
10:17
MINIM
-0.6
00:02
UMIDITATEA
MEDIA
84
MAXIM
90
00:53
MINIM
60
11:48
TEMPERATURA (°C)
MINIM
0.9
MAXIM
15.3
MEDIA
4.9
PRESIUNEA (hpa)
MINIM
1005.2
MAXIM
1011.6
MEDIA
1008.9
STATIA METEO